Terminal Aerodrome Forecast
Issued by NWS Sioux Falls, SD

Home | Current Version | Previous Version | Text Only | Print | Product List | Glossary Off
Versions: 1 2 3 4 5 6 7 8 9 10 11 12 13 14 15 16 17 18 19 20 21 22

238
FTUS43 KFSD 131130
TAFFSD
TAF
KFSD 131130Z 1312/1412 12004KT P6SM BKN100
     FM131500 14008KT P6SM OVC070
     FM131800 15012KT P6SM OVC050
     FM132200 15015G25KT P6SM OVC045
     FM140100 16017G26KT 2SM -SN OVC025
     FM140600 16019G28KT 3/4SM -SN BLSN OVC035=

USA.gov is the U.S. government's official web portal to all federal, state and local government web resources and services.